sensor_id;sensor_type;location;lat;lon;timestamp;temperature;humidity
14188;DHT22;7175;51.978;5.330;2022-09-09T00:00:49;15.40;99.90
14188;DHT22;7175;51.978;5.330;2022-09-09T00:03:33;15.50;99.90
14188;DHT22;7175;51.978;5.330;2022-09-09T00:06:14;15.50;99.90
14188;DHT22;7175;51.978;5.330;2022-09-09T00:09:06;15.50;99.90
14188;DHT22;7175;51.978;5.330;2022-09-09T00:11:54;15.40;99.90
14188;DHT22;7175;51.978;5.330;2022-09-09T00:14:37;15.40;99.90
14188;DHT22;7175;51.978;5.330;2022-09-09T00:17:14;15.30;99.90
14188;DHT22;7175;51.978;5.330;2022-09-09T00:19:56;15.30;99.90
14188;DHT22;7175;51.978;5.330;2022-09-09T00:22:32;15.20;99.90
14188;DHT22;7175;51.978;5.330;2022-09-09T00:25:08;15.20;99.90
14188;DHT22;7175;51.978;5.330;2022-09-09T00:27:44;15.20;99.90
14188;DHT22;7175;51.978;5.330;2022-09-09T00:30:19;15.20;99.90
14188;DHT22;7175;51.978;5.330;2022-09-09T00:33:00;15.10;99.90
14188;DHT22;7175;51.978;5.330;2022-09-09T00:35:35;15.10;99.90
14188;DHT22;7175;51.978;5.330;2022-09-09T00:38:12;15.10;99.90
14188;DHT22;7175;51.978;5.330;2022-09-09T00:40:48;15.10;99.90
14188;DHT22;7175;51.978;5.330;2022-09-09T00:43:28;15.10;99.90
14188;DHT22;7175;51.978;5.330;2022-09-09T00:46:23;15.00;99.90
14188;DHT22;7175;51.978;5.330;2022-09-09T00:49:03;15.00;99.90
14188;DHT22;7175;51.978;5.330;2022-09-09T00:51:43;15.00;99.90
14188;DHT22;7175;51.978;5.330;2022-09-09T00:54:33;15.00;99.90
14188;DHT22;7175;51.978;5.330;2022-09-09T00:57:14;15.00;99.90
14188;DHT22;7175;51.978;5.330;2022-09-09T00:59:51;14.90;99.90
14188;DHT22;7175;51.978;5.330;2022-09-09T01:02:28;14.90;99.90
14188;DHT22;7175;51.978;5.330;2022-09-09T01:05:02;14.90;99.90
14188;DHT22;7175;51.978;5.330;2022-09-09T01:07:36;14.90;99.90
14188;DHT22;7175;51.978;5.330;2022-09-09T01:10:13;14.90;99.90
14188;DHT22;7175;51.978;5.330;2022-09-09T01:13:04;14.80;99.90
14188;DHT22;7175;51.978;5.330;2022-09-09T01:15:48;14.80;99.90
14188;DHT22;7175;51.978;5.330;2022-09-09T01:18:34;14.70;99.90
14188;DHT22;7175;51.978;5.330;2022-09-09T01:21:22;14.70;99.90
14188;DHT22;7175;51.978;5.330;2022-09-09T01:24:18;14.70;99.90
14188;DHT22;7175;51.978;5.330;2022-09-09T01:26:59;14.70;99.90
14188;DHT22;7175;51.978;5.330;2022-09-09T01:29:29;14.70;99.90
14188;DHT22;7175;51.978;5.330;2022-09-09T01:35:37;14.70;99.90
14188;DHT22;7175;51.978;5.330;2022-09-09T01:38:08;14.60;99.90
14188;DHT22;7175;51.978;5.330;2022-09-09T01:40:47;14.60;99.90
14188;DHT22;7175;51.978;5.330;2022-09-09T01:43:20;14.60;99.90
14188;DHT22;7175;51.978;5.330;2022-09-09T01:45:53;14.60;99.90
14188;DHT22;7175;51.978;5.330;2022-09-09T01:48:33;14.50;99.90
14188;DHT22;7175;51.978;5.330;2022-09-09T01:51:08;14.50;99.90
14188;DHT22;7175;51.978;5.330;2022-09-09T01:54:00;14.50;99.90
14188;DHT22;7175;51.978;5.330;2022-09-09T01:56:39;14.60;99.90
14188;DHT22;7175;51.978;5.330;2022-09-09T01:59:36;14.60;99.90
14188;DHT22;7175;51.978;5.330;2022-09-09T02:02:26;14.60;99.90
14188;DHT22;7175;51.978;5.330;2022-09-09T02:07:56;14.50;99.90
14188;DHT22;7175;51.978;5.330;2022-09-09T02:10:33;14.40;99.90
14188;DHT22;7175;51.978;5.330;2022-09-09T02:13:14;14.40;99.90
14188;DHT22;7175;51.978;5.330;2022-09-09T02:15:53;14.40;99.90
14188;DHT22;7175;51.978;5.330;2022-09-09T02:18:29;14.40;99.90
14188;DHT22;7175;51.978;5.330;2022-09-09T02:21:03;14.40;99.90
14188;DHT22;7175;51.978;5.330;2022-09-09T02:23:34;14.40;99.90
14188;DHT22;7175;51.978;5.330;2022-09-09T02:26:06;14.40;99.90
14188;DHT22;7175;51.978;5.330;2022-09-09T02:28:37;14.30;99.90
14188;DHT22;7175;51.978;5.330;2022-09-09T02:31:18;14.30;99.90
14188;DHT22;7175;51.978;5.330;2022-09-09T02:33:57;14.30;99.90
14188;DHT22;7175;51.978;5.330;2022-09-09T02:36:35;14.20;99.90
14188;DHT22;7175;51.978;5.330;2022-09-09T02:39:14;14.30;99.90
14188;DHT22;7175;51.978;5.330;2022-09-09T02:41:43;14.30;99.90
14188;DHT22;7175;51.978;5.330;2022-09-09T02:44:18;14.30;99.90
14188;DHT22;7175;51.978;5.330;2022-09-09T02:47:13;14.30;99.90
14188;DHT22;7175;51.978;5.330;2022-09-09T02:49:59;14.30;99.90
14188;DHT22;7175;51.978;5.330;2022-09-09T02:52:47;14.30;99.90
14188;DHT22;7175;51.978;5.330;2022-09-09T02:55:20;14.30;99.90
14188;DHT22;7175;51.978;5.330;2022-09-09T02:57:53;14.30;99.90
14188;DHT22;7175;51.978;5.330;2022-09-09T03:00:26;14.20;99.90
14188;DHT22;7175;51.978;5.330;2022-09-09T03:03:02;14.20;99.90
14188;DHT22;7175;51.978;5.330;2022-09-09T03:05:31;14.20;99.90
14188;DHT22;7175;51.978;5.330;2022-09-09T03:08:06;14.20;99.90
14188;DHT22;7175;51.978;5.330;2022-09-09T03:10:43;14.20;99.90
14188;DHT22;7175;51.978;5.330;2022-09-09T03:13:16;14.20;99.90
14188;DHT22;7175;51.978;5.330;2022-09-09T03:15:48;14.20;99.90
14188;DHT22;7175;51.978;5.330;2022-09-09T03:18:18;14.20;99.90
14188;DHT22;7175;51.978;5.330;2022-09-09T03:20:47;14.10;99.90
14188;DHT22;7175;51.978;5.330;2022-09-09T03:23:16;14.20;99.90
14188;DHT22;7175;51.978;5.330;2022-09-09T03:25:52;14.20;99.90
14188;DHT22;7175;51.978;5.330;2022-09-09T03:28:24;14.20;99.90
14188;DHT22;7175;51.978;5.330;2022-09-09T03:30:59;14.20;99.90
14188;DHT22;7175;51.978;5.330;2022-09-09T03:33:29;14.20;99.90
14188;DHT22;7175;51.978;5.330;2022-09-09T03:35:58;14.10;99.90
14188;DHT22;7175;51.978;5.330;2022-09-09T03:38:26;14.10;99.90
14188;DHT22;7175;51.978;5.330;2022-09-09T03:40:56;14.20;99.90
14188;DHT22;7175;51.978;5.330;2022-09-09T03:43:26;14.20;99.90
14188;DHT22;7175;51.978;5.330;2022-09-09T03:45:55;14.20;99.90
14188;DHT22;7175;51.978;5.330;2022-09-09T03:48:24;14.20;99.90
14188;DHT22;7175;51.978;5.330;2022-09-09T03:50:56;14.20;99.90
14188;DHT22;7175;51.978;5.330;2022-09-09T03:53:41;14.20;99.90
14188;DHT22;7175;51.978;5.330;2022-09-09T03:56:10;14.20;99.90
14188;DHT22;7175;51.978;5.330;2022-09-09T03:58:44;14.20;99.90
14188;DHT22;7175;51.978;5.330;2022-09-09T04:01:19;14.20;99.90
14188;DHT22;7175;51.978;5.330;2022-09-09T04:03:53;14.20;99.90
14188;DHT22;7175;51.978;5.330;2022-09-09T04:06:28;14.20;99.90
14188;DHT22;7175;51.978;5.330;2022-09-09T04:09:04;14.20;99.90
14188;DHT22;7175;51.978;5.330;2022-09-09T04:11:37;14.30;99.90
14188;DHT22;7175;51.978;5.330;2022-09-09T04:14:16;14.30;99.90
14188;DHT22;7175;51.978;5.330;2022-09-09T04:17:03;14.30;99.90
14188;DHT22;7175;51.978;5.330;2022-09-09T04:19:39;14.30;99.90
14188;DHT22;7175;51.978;5.330;2022-09-09T04:22:11;14.30;99.90
14188;DHT22;7175;51.978;5.330;2022-09-09T04:24:39;14.30;99.90
14188;DHT22;7175;51.978;5.330;2022-09-09T04:27:24;14.40;99.90
14188;DHT22;7175;51.978;5.330;2022-09-09T04:30:02;14.40;99.90
14188;DHT22;7175;51.978;5.330;2022-09-09T04:32:38;14.40;99.90
14188;DHT22;7175;51.978;5.330;2022-09-09T04:35:19;14.30;99.90
14188;DHT22;7175;51.978;5.330;2022-09-09T04:37:59;14.40;99.90
14188;DHT22;7175;51.978;5.330;2022-09-09T04:40:35;14.40;99.90
14188;DHT22;7175;51.978;5.330;2022-09-09T04:43:15;14.30;99.90
14188;DHT22;7175;51.978;5.330;2022-09-09T04:45:51;14.30;99.90
14188;DHT22;7175;51.978;5.330;2022-09-09T04:48:21;14.30;99.90
14188;DHT22;7175;51.978;5.330;2022-09-09T04:50:56;14.30;99.90
14188;DHT22;7175;51.978;5.330;2022-09-09T04:53:27;14.40;99.90
14188;DHT22;7175;51.978;5.330;2022-09-09T04:56:02;14.30;99.90
14188;DHT22;7175;51.978;5.330;2022-09-09T04:58:31;14.30;99.90
14188;DHT22;7175;51.978;5.330;2022-09-09T05:01:08;14.30;99.90
14188;DHT22;7175;51.978;5.330;2022-09-09T05:03:36;14.30;99.90
14188;DHT22;7175;51.978;5.330;2022-09-09T05:06:07;14.30;99.90
14188;DHT22;7175;51.978;5.330;2022-09-09T05:08:39;14.30;99.90
14188;DHT22;7175;51.978;5.330;2022-09-09T05:11:14;14.30;99.90
14188;DHT22;7175;51.978;5.330;2022-09-09T05:13:46;14.40;99.90
14188;DHT22;7175;51.978;5.330;2022-09-09T05:16:18;14.40;99.90
14188;DHT22;7175;51.978;5.330;2022-09-09T05:18:55;14.40;99.90
14188;DHT22;7175;51.978;5.330;2022-09-09T05:21:24;14.40;99.90
14188;DHT22;7175;51.978;5.330;2022-09-09T05:23:59;14.40;99.90
14188;DHT22;7175;51.978;5.330;2022-09-09T05:26:28;14.40;99.90
14188;DHT22;7175;51.978;5.330;2022-09-09T05:28:58;14.40;99.90
14188;DHT22;7175;51.978;5.330;2022-09-09T05:31:35;14.40;99.90
14188;DHT22;7175;51.978;5.330;2022-09-09T05:34:06;14.50;99.90
14188;DHT22;7175;51.978;5.330;2022-09-09T05:36:39;14.50;99.90
14188;DHT22;7175;51.978;5.330;2022-09-09T05:39:09;14.50;99.90
14188;DHT22;7175;51.978;5.330;2022-09-09T05:41:38;14.50;99.90
14188;DHT22;7175;51.978;5.330;2022-09-09T05:44:13;14.50;99.90
14188;DHT22;7175;51.978;5.330;2022-09-09T05:46:59;14.60;99.90
14188;DHT22;7175;51.978;5.330;2022-09-09T05:49:27;14.60;99.90
14188;DHT22;7175;51.978;5.330;2022-09-09T05:52:30;14.70;99.90
14188;DHT22;7175;51.978;5.330;2022-09-09T05:55:03;14.80;99.90
14188;DHT22;7175;51.978;5.330;2022-09-09T05:57:37;14.90;99.90
14188;DHT22;7175;51.978;5.330;2022-09-09T06:00:07;14.90;99.90
14188;DHT22;7175;51.978;5.330;2022-09-09T06:02:53;14.90;99.90
14188;DHT22;7175;51.978;5.330;2022-09-09T06:05:22;14.90;99.90
14188;DHT22;7175;51.978;5.330;2022-09-09T06:08:06;14.90;99.90
14188;DHT22;7175;51.978;5.330;2022-09-09T06:10:37;15.00;99.90
14188;DHT22;7175;51.978;5.330;2022-09-09T06:13:05;15.00;99.90
14188;DHT22;7175;51.978;5.330;2022-09-09T06:15:38;15.10;99.90
14188;DHT22;7175;51.978;5.330;2022-09-09T06:18:07;15.20;99.90
14188;DHT22;7175;51.978;5.330;2022-09-09T06:20:35;15.30;99.90
14188;DHT22;7175;51.978;5.330;2022-09-09T06:23:06;15.40;99.90
14188;DHT22;7175;51.978;5.330;2022-09-09T06:25:34;15.40;99.90
14188;DHT22;7175;51.978;5.330;2022-09-09T06:28:03;15.50;99.90
14188;DHT22;7175;51.978;5.330;2022-09-09T06:30:33;15.60;99.90
14188;DHT22;7175;51.978;5.330;2022-09-09T06:33:01;15.70;99.90
14188;DHT22;7175;51.978;5.330;2022-09-09T06:35:30;15.80;99.90
14188;DHT22;7175;51.978;5.330;2022-09-09T06:37:58;15.90;99.90
14188;DHT22;7175;51.978;5.330;2022-09-09T06:40:26;16.00;99.90
14188;DHT22;7175;51.978;5.330;2022-09-09T06:42:54;16.20;99.90
14188;DHT22;7175;51.978;5.330;2022-09-09T06:45:24;16.20;99.90
14188;DHT22;7175;51.978;5.330;2022-09-09T06:47:54;16.10;99.90
14188;DHT22;7175;51.978;5.330;2022-09-09T06:50:22;16.00;99.90
14188;DHT22;7175;51.978;5.330;2022-09-09T06:52:50;16.00;99.90
14188;DHT22;7175;51.978;5.330;2022-09-09T06:55:19;16.20;99.90
14188;DHT22;7175;51.978;5.330;2022-09-09T06:57:47;16.40;99.90
14188;DHT22;7175;51.978;5.330;2022-09-09T07:00:15;16.60;99.90
14188;DHT22;7175;51.978;5.330;2022-09-09T07:02:46;16.60;99.90
14188;DHT22;7175;51.978;5.330;2022-09-09T07:05:14;16.50;99.90
14188;DHT22;7175;51.978;5.330;2022-09-09T07:07:50;16.50;99.90
14188;DHT22;7175;51.978;5.330;2022-09-09T07:10:18;16.50;99.90
14188;DHT22;7175;51.978;5.330;2022-09-09T07:12:51;16.40;99.90
14188;DHT22;7175;51.978;5.330;2022-09-09T07:15:22;16.40;99.90
14188;DHT22;7175;51.978;5.330;2022-09-09T07:17:55;16.40;99.90
14188;DHT22;7175;51.978;5.330;2022-09-09T07:20:28;16.50;99.90
14188;DHT22;7175;51.978;5.330;2022-09-09T07:23:03;16.60;99.90
14188;DHT22;7175;51.978;5.330;2022-09-09T07:25:33;16.70;99.90
14188;DHT22;7175;51.978;5.330;2022-09-09T07:28:08;17.00;99.90
14188;DHT22;7175;51.978;5.330;2022-09-09T07:30:53;17.20;99.90
14188;DHT22;7175;51.978;5.330;2022-09-09T07:33:28;17.30;99.90
14188;DHT22;7175;51.978;5.330;2022-09-09T07:36:04;17.50;99.90
14188;DHT22;7175;51.978;5.330;2022-09-09T07:38:37;17.50;99.90
14188;DHT22;7175;51.978;5.330;2022-09-09T07:41:09;17.40;99.90
14188;DHT22;7175;51.978;5.330;2022-09-09T07:43:44;17.30;99.90
14188;DHT22;7175;51.978;5.330;2022-09-09T07:46:31;17.20;99.90
14188;DHT22;7175;51.978;5.330;2022-09-09T07:49:09;17.20;99.90
14188;DHT22;7175;51.978;5.330;2022-09-09T07:51:48;17.10;99.90
14188;DHT22;7175;51.978;5.330;2022-09-09T07:54:19;17.20;99.90
14188;DHT22;7175;51.978;5.330;2022-09-09T07:57:00;17.20;99.90
14188;DHT22;7175;51.978;5.330;2022-09-09T08:00:00;17.40;99.90
14188;DHT22;7175;51.978;5.330;2022-09-09T08:02:48;17.50;99.90
14188;DHT22;7175;51.978;5.330;2022-09-09T08:05:40;17.40;99.90
14188;DHT22;7175;51.978;5.330;2022-09-09T08:08:13;17.30;99.90
14188;DHT22;7175;51.978;5.330;2022-09-09T08:10:43;17.30;99.90
14188;DHT22;7175;51.978;5.330;2022-09-09T08:13:19;17.40;99.90
14188;DHT22;7175;51.978;5.330;2022-09-09T08:15:54;17.40;99.90
14188;DHT22;7175;51.978;5.330;2022-09-09T08:18:29;17.30;99.90
14188;DHT22;7175;51.978;5.330;2022-09-09T08:21:17;17.30;99.90
14188;DHT22;7175;51.978;5.330;2022-09-09T08:23:54;17.30;99.90
14188;DHT22;7175;51.978;5.330;2022-09-09T08:26:28;17.20;99.90
14188;DHT22;7175;51.978;5.330;2022-09-09T08:28:59;17.30;99.90
14188;DHT22;7175;51.978;5.330;2022-09-09T08:31:32;17.30;99.90
14188;DHT22;7175;51.978;5.330;2022-09-09T08:34:04;17.20;99.90
14188;DHT22;7175;51.978;5.330;2022-09-09T08:36:46;17.30;99.90
14188;DHT22;7175;51.978;5.330;2022-09-09T08:39:19;17.20;99.90
14188;DHT22;7175;51.978;5.330;2022-09-09T08:45:02;17.30;99.90
14188;DHT22;7175;51.978;5.330;2022-09-09T08:47:37;17.40;99.90
14188;DHT22;7175;51.978;5.330;2022-09-09T08:50:18;17.30;99.90
14188;DHT22;7175;51.978;5.330;2022-09-09T08:53:11;17.40;99.90
14188;DHT22;7175;51.978;5.330;2022-09-09T08:55:44;17.40;99.90
14188;DHT22;7175;51.978;5.330;2022-09-09T08:58:17;17.30;99.90
14188;DHT22;7175;51.978;5.330;2022-09-09T09:01:17;17.30;99.90
14188;DHT22;7175;51.978;5.330;2022-09-09T09:04:00;17.30;99.90
14188;DHT22;7175;51.978;5.330;2022-09-09T09:06:53;17.30;99.90
14188;DHT22;7175;51.978;5.330;2022-09-09T09:09:47;17.30;99.90
14188;DHT22;7175;51.978;5.330;2022-09-09T09:12:21;17.40;99.90
14188;DHT22;7175;51.978;5.330;2022-09-09T09:14:50;17.50;99.90
14188;DHT22;7175;51.978;5.330;2022-09-09T09:17:24;17.60;99.90
14188;DHT22;7175;51.978;5.330;2022-09-09T09:20:18;17.50;99.90
14188;DHT22;7175;51.978;5.330;2022-09-09T09:22:59;17.60;99.90
14188;DHT22;7175;51.978;5.330;2022-09-09T09:25:35;17.60;99.90
14188;DHT22;7175;51.978;5.330;2022-09-09T09:28:17;17.60;99.90
14188;DHT22;7175;51.978;5.330;2022-09-09T09:34:15;17.70;99.90
14188;DHT22;7175;51.978;5.330;2022-09-09T09:36:54;17.70;99.90
14188;DHT22;7175;51.978;5.330;2022-09-09T09:39:36;17.80;99.90
14188;DHT22;7175;51.978;5.330;2022-09-09T09:42:36;17.80;99.90
14188;DHT22;7175;51.978;5.330;2022-09-09T09:45:27;17.70;99.90
14188;DHT22;7175;51.978;5.330;2022-09-09T09:48:02;17.70;99.90
14188;DHT22;7175;51.978;5.330;2022-09-09T09:50:35;17.70;99.90
14188;DHT22;7175;51.978;5.330;2022-09-09T09:53:05;17.60;99.90
14188;DHT22;7175;51.978;5.330;2022-09-09T09:55:35;17.60;99.90
14188;DHT22;7175;51.978;5.330;2022-09-09T09:58:32;17.70;99.90
14188;DHT22;7175;51.978;5.330;2022-09-09T10:01:21;17.70;99.90
14188;DHT22;7175;51.978;5.330;2022-09-09T10:03:53;17.70;99.90
14188;DHT22;7175;51.978;5.330;2022-09-09T10:06:36;17.80;99.90
14188;DHT22;7175;51.978;5.330;2022-09-09T10:09:21;17.80;99.90
14188;DHT22;7175;51.978;5.330;2022-09-09T10:11:58;17.80;99.90
14188;DHT22;7175;51.978;5.330;2022-09-09T10:14:37;17.60;99.90
14188;DHT22;7175;51.978;5.330;2022-09-09T10:17:16;17.60;99.90
14188;DHT22;7175;51.978;5.330;2022-09-09T10:19:58;17.60;99.90
14188;DHT22;7175;51.978;5.330;2022-09-09T10:22:35;17.50;99.90
14188;DHT22;7175;51.978;5.330;2022-09-09T10:25:17;17.50;99.90
14188;DHT22;7175;51.978;5.330;2022-09-09T10:28:01;17.40;99.90
14188;DHT22;7175;51.978;5.330;2022-09-09T10:30:51;17.40;99.90
14188;DHT22;7175;51.978;5.330;2022-09-09T10:33:29;17.30;99.90
14188;DHT22;7175;51.978;5.330;2022-09-09T10:36:07;17.10;99.90
14188;DHT22;7175;51.978;5.330;2022-09-09T10:38:42;17.00;99.90
14188;DHT22;7175;51.978;5.330;2022-09-09T10:41:19;17.10;99.90
14188;DHT22;7175;51.978;5.330;2022-09-09T10:44:12;17.40;99.90
14188;DHT22;7175;51.978;5.330;2022-09-09T10:47:00;17.80;99.90
14188;DHT22;7175;51.978;5.330;2022-09-09T10:49:57;18.10;99.90
14188;DHT22;7175;51.978;5.330;2022-09-09T10:52:32;18.10;99.90
14188;DHT22;7175;51.978;5.330;2022-09-09T10:55:11;18.20;99.90
14188;DHT22;7175;51.978;5.330;2022-09-09T10:57:45;18.10;99.90
14188;DHT22;7175;51.978;5.330;2022-09-09T11:00:18;18.20;99.90
14188;DHT22;7175;51.978;5.330;2022-09-09T11:02:54;18.50;99.90
14188;DHT22;7175;51.978;5.330;2022-09-09T11:05:28;18.50;99.90
14188;DHT22;7175;51.978;5.330;2022-09-09T11:08:02;18.40;99.90
14188;DHT22;7175;51.978;5.330;2022-09-09T11:10:39;18.30;99.90
14188;DHT22;7175;51.978;5.330;2022-09-09T11:13:13;18.20;99.90
14188;DHT22;7175;51.978;5.330;2022-09-09T11:15:45;18.30;99.90
14188;DHT22;7175;51.978;5.330;2022-09-09T11:18:23;18.20;99.90
14188;DHT22;7175;51.978;5.330;2022-09-09T11:20:56;18.30;99.90
14188;DHT22;7175;51.978;5.330;2022-09-09T11:23:32;18.20;99.90
14188;DHT22;7175;51.978;5.330;2022-09-09T11:26:14;18.20;99.90
14188;DHT22;7175;51.978;5.330;2022-09-09T11:28:56;18.10;99.90
14188;DHT22;7175;51.978;5.330;2022-09-09T11:31:44;18.10;99.90
14188;DHT22;7175;51.978;5.330;2022-09-09T11:34:23;18.10;99.90
14188;DHT22;7175;51.978;5.330;2022-09-09T11:37:08;18.00;99.90
14188;DHT22;7175;51.978;5.330;2022-09-09T11:39:59;17.90;99.90
14188;DHT22;7175;51.978;5.330;2022-09-09T11:42:30;17.80;99.90
14188;DHT22;7175;51.978;5.330;2022-09-09T11:45:09;17.80;99.90
14188;DHT22;7175;51.978;5.330;2022-09-09T11:47:39;17.70;99.90
14188;DHT22;7175;51.978;5.330;2022-09-09T11:50:10;17.60;99.90
14188;DHT22;7175;51.978;5.330;2022-09-09T11:56:08;17.60;99.90
14188;DHT22;7175;51.978;5.330;2022-09-09T11:58:42;17.50;99.90
14188;DHT22;7175;51.978;5.330;2022-09-09T12:01:29;17.50;99.90
14188;DHT22;7175;51.978;5.330;2022-09-09T12:04:18;17.40;99.90
14188;DHT22;7175;51.978;5.330;2022-09-09T12:06:54;17.30;99.90
14188;DHT22;7175;51.978;5.330;2022-09-09T12:09:40;17.30;99.90
14188;DHT22;7175;51.978;5.330;2022-09-09T12:12:31;17.40;99.90
14188;DHT22;7175;51.978;5.330;2022-09-09T12:15:18;17.50;99.90
14188;DHT22;7175;51.978;5.330;2022-09-09T12:17:48;17.80;99.90
14188;DHT22;7175;51.978;5.330;2022-09-09T12:20:21;18.00;99.90
14188;DHT22;7175;51.978;5.330;2022-09-09T12:25:59;18.40;99.90
14188;DHT22;7175;51.978;5.330;2022-09-09T12:28:41;18.50;99.90
14188;DHT22;7175;51.978;5.330;2022-09-09T12:31:16;18.30;99.90
14188;DHT22;7175;51.978;5.330;2022-09-09T12:33:49;18.40;99.90
14188;DHT22;7175;51.978;5.330;2022-09-09T12:36:24;18.30;99.90
14188;DHT22;7175;51.978;5.330;2022-09-09T12:38:56;18.20;99.90
14188;DHT22;7175;51.978;5.330;2022-09-09T12:41:28;18.10;99.90
14188;DHT22;7175;51.978;5.330;2022-09-09T12:44:04;18.20;99.90
14188;DHT22;7175;51.978;5.330;2022-09-09T12:46:36;18.30;99.90
14188;DHT22;7175;51.978;5.330;2022-09-09T12:49:04;18.30;99.90
14188;DHT22;7175;51.978;5.330;2022-09-09T12:51:33;18.30;99.90
14188;DHT22;7175;51.978;5.330;2022-09-09T12:54:05;18.30;99.90
14188;DHT22;7175;51.978;5.330;2022-09-09T12:56:33;18.40;99.90
14188;DHT22;7175;51.978;5.330;2022-09-09T12:59:03;18.30;99.90
14188;DHT22;7175;51.978;5.330;2022-09-09T13:01:32;18.20;99.90
14188;DHT22;7175;51.978;5.330;2022-09-09T13:04:01;18.00;99.90
14188;DHT22;7175;51.978;5.330;2022-09-09T13:06:31;17.90;99.90
14188;DHT22;7175;51.978;5.330;2022-09-09T13:09:00;17.80;99.90
14188;DHT22;7175;51.978;5.330;2022-09-09T13:11:35;17.80;99.90
14188;DHT22;7175;51.978;5.330;2022-09-09T13:14:05;17.90;99.90
14188;DHT22;7175;51.978;5.330;2022-09-09T13:16:35;18.00;99.90
14188;DHT22;7175;51.978;5.330;2022-09-09T13:19:13;18.00;99.90
14188;DHT22;7175;51.978;5.330;2022-09-09T13:21:42;18.10;99.90
14188;DHT22;7175;51.978;5.330;2022-09-09T13:24:25;18.20;99.90
14188;DHT22;7175;51.978;5.330;2022-09-09T13:26:57;18.20;99.90
14188;DHT22;7175;51.978;5.330;2022-09-09T13:29:29;18.20;99.90
14188;DHT22;7175;51.978;5.330;2022-09-09T13:32:04;18.40;99.90
14188;DHT22;7175;51.978;5.330;2022-09-09T13:34:34;18.50;99.90
14188;DHT22;7175;51.978;5.330;2022-09-09T13:37:04;18.60;99.90
14188;DHT22;7175;51.978;5.330;2022-09-09T13:39:34;18.70;99.90
14188;DHT22;7175;51.978;5.330;2022-09-09T13:42:05;18.70;99.90
14188;DHT22;7175;51.978;5.330;2022-09-09T13:44:36;18.70;99.90
14188;DHT22;7175;51.978;5.330;2022-09-09T13:47:06;18.70;99.90
14188;DHT22;7175;51.978;5.330;2022-09-09T13:49:46;18.70;99.90
14188;DHT22;7175;51.978;5.330;2022-09-09T13:52:17;18.90;99.90
14188;DHT22;7175;51.978;5.330;2022-09-09T13:54:48;18.80;99.90
14188;DHT22;7175;51.978;5.330;2022-09-09T13:57:20;18.80;99.90
14188;DHT22;7175;51.978;5.330;2022-09-09T13:59:49;18.90;99.90
14188;DHT22;7175;51.978;5.330;2022-09-09T14:02:32;19.10;99.90
14188;DHT22;7175;51.978;5.330;2022-09-09T14:05:00;19.20;99.90
14188;DHT22;7175;51.978;5.330;2022-09-09T14:07:28;19.30;99.90
14188;DHT22;7175;51.978;5.330;2022-09-09T14:09:57;19.30;99.90
14188;DHT22;7175;51.978;5.330;2022-09-09T14:12:27;19.30;99.90
14188;DHT22;7175;51.978;5.330;2022-09-09T14:14:55;19.20;99.90
14188;DHT22;7175;51.978;5.330;2022-09-09T14:17:23;19.10;99.90
14188;DHT22;7175;51.978;5.330;2022-09-09T14:19:51;19.10;99.90
14188;DHT22;7175;51.978;5.330;2022-09-09T14:22:20;19.30;99.90
14188;DHT22;7175;51.978;5.330;2022-09-09T14:24:49;19.60;99.90
14188;DHT22;7175;51.978;5.330;2022-09-09T14:27:17;19.80;99.90
14188;DHT22;7175;51.978;5.330;2022-09-09T14:29:46;19.90;99.90
14188;DHT22;7175;51.978;5.330;2022-09-09T14:32:14;20.00;99.90
14188;DHT22;7175;51.978;5.330;2022-09-09T14:34:42;19.80;99.90
14188;DHT22;7175;51.978;5.330;2022-09-09T14:37:13;19.90;99.90
14188;DHT22;7175;51.978;5.330;2022-09-09T14:39:41;19.90;99.90
14188;DHT22;7175;51.978;5.330;2022-09-09T14:42:11;19.90;99.90
14188;DHT22;7175;51.978;5.330;2022-09-09T14:44:39;19.80;99.90
14188;DHT22;7175;51.978;5.330;2022-09-09T14:47:09;19.80;99.90
14188;DHT22;7175;51.978;5.330;2022-09-09T14:49:37;19.70;99.90
14188;DHT22;7175;51.978;5.330;2022-09-09T14:52:10;19.60;99.90
14188;DHT22;7175;51.978;5.330;2022-09-09T14:54:48;19.70;99.90
14188;DHT22;7175;51.978;5.330;2022-09-09T14:57:22;19.70;99.90
14188;DHT22;7175;51.978;5.330;2022-09-09T14:59:51;19.70;99.90
14188;DHT22;7175;51.978;5.330;2022-09-09T15:02:30;19.80;99.90
14188;DHT22;7175;51.978;5.330;2022-09-09T15:04:59;19.70;99.90
14188;DHT22;7175;51.978;5.330;2022-09-09T15:07:28;19.60;99.90
14188;DHT22;7175;51.978;5.330;2022-09-09T15:09:56;19.70;99.90
14188;DHT22;7175;51.978;5.330;2022-09-09T15:12:24;19.80;99.90
14188;DHT22;7175;51.978;5.330;2022-09-09T15:14:52;19.80;99.90
14188;DHT22;7175;51.978;5.330;2022-09-09T15:17:24;19.70;99.90
14188;DHT22;7175;51.978;5.330;2022-09-09T15:19:56;19.60;99.90
14188;DHT22;7175;51.978;5.330;2022-09-09T15:22:33;19.50;99.90
14188;DHT22;7175;51.978;5.330;2022-09-09T15:25:04;19.30;99.90
14188;DHT22;7175;51.978;5.330;2022-09-09T15:27:35;19.20;99.90
14188;DHT22;7175;51.978;5.330;2022-09-09T15:30:08;19.10;99.90
14188;DHT22;7175;51.978;5.330;2022-09-09T15:32:37;19.00;99.90
14188;DHT22;7175;51.978;5.330;2022-09-09T15:35:16;18.90;99.90
14188;DHT22;7175;51.978;5.330;2022-09-09T15:37:46;18.80;99.90
14188;DHT22;7175;51.978;5.330;2022-09-09T15:43:12;18.70;99.90
14188;DHT22;7175;51.978;5.330;2022-09-09T15:46:13;18.70;99.90
14188;DHT22;7175;51.978;5.330;2022-09-09T15:49:04;18.70;99.90
14188;DHT22;7175;51.978;5.330;2022-09-09T15:51:39;18.60;99.90
14188;DHT22;7175;51.978;5.330;2022-09-09T15:54:19;18.60;99.90
14188;DHT22;7175;51.978;5.330;2022-09-09T15:57:16;18.60;99.90
14188;DHT22;7175;51.978;5.330;2022-09-09T15:59:51;18.50;99.90
14188;DHT22;7175;51.978;5.330;2022-09-09T16:02:37;18.60;99.90
14188;DHT22;7175;51.978;5.330;2022-09-09T16:05:06;18.50;99.90
14188;DHT22;7175;51.978;5.330;2022-09-09T16:07:42;18.50;99.90
14188;DHT22;7175;51.978;5.330;2022-09-09T16:10:13;18.40;99.90
14188;DHT22;7175;51.978;5.330;2022-09-09T16:13:00;18.50;99.90
14188;DHT22;7175;51.978;5.330;2022-09-09T16:15:31;18.50;99.90
14188;DHT22;7175;51.978;5.330;2022-09-09T16:18:01;18.50;99.90
14188;DHT22;7175;51.978;5.330;2022-09-09T16:20:43;18.50;99.90
14188;DHT22;7175;51.978;5.330;2022-09-09T16:23:24;18.50;99.90
14188;DHT22;7175;51.978;5.330;2022-09-09T16:26:15;18.50;99.90
14188;DHT22;7175;51.978;5.330;2022-09-09T16:28:48;18.50;99.90
14188;DHT22;7175;51.978;5.330;2022-09-09T16:31:24;18.50;99.90
14188;DHT22;7175;51.978;5.330;2022-09-09T16:34:03;18.50;99.90
14188;DHT22;7175;51.978;5.330;2022-09-09T16:36:38;18.50;99.90
14188;DHT22;7175;51.978;5.330;2022-09-09T16:39:11;18.50;99.90
14188;DHT22;7175;51.978;5.330;2022-09-09T16:41:47;18.50;99.90
14188;DHT22;7175;51.978;5.330;2022-09-09T16:44:17;18.60;99.90
14188;DHT22;7175;51.978;5.330;2022-09-09T16:46:47;18.50;99.90
14188;DHT22;7175;51.978;5.330;2022-09-09T16:49:24;18.60;99.90
14188;DHT22;7175;51.978;5.330;2022-09-09T16:51:58;18.50;99.90
14188;DHT22;7175;51.978;5.330;2022-09-09T16:54:29;18.60;99.90
14188;DHT22;7175;51.978;5.330;2022-09-09T16:56:58;18.60;99.90
14188;DHT22;7175;51.978;5.330;2022-09-09T16:59:32;18.60;99.90
14188;DHT22;7175;51.978;5.330;2022-09-09T17:02:02;18.50;99.90